sensor_id;sensor_type;location;lat;lon;timestamp;temperature;humidity
47434;SHT31;33184;48.774;8.918;2023-02-28T00:02:31;-2.50;64.52
47434;SHT31;33184;48.774;8.918;2023-02-28T00:07:52;-2.53;65.39
47434;SHT31;33184;48.774;8.918;2023-02-28T00:13:12;-2.60;65.91
47434;SHT31;33184;48.774;8.918;2023-02-28T00:18:33;-2.61;65.99
47434;SHT31;33184;48.774;8.918;2023-02-28T00:23:54;-2.63;66.14
47434;SHT31;33184;48.774;8.918;2023-02-28T00:29:14;-2.63;66.38
47434;SHT31;33184;48.774;8.918;2023-02-28T00:34:38;-2.70;67.06
47434;SHT31;33184;48.774;8.918;2023-02-28T00:39:59;-2.74;67.53
47434;SHT31;33184;48.774;8.918;2023-02-28T00:45:22;-2.77;67.69
47434;SHT31;33184;48.774;8.918;2023-02-28T00:50:42;-2.81;67.80
47434;SHT31;33184;48.774;8.918;2023-02-28T00:56:04;-2.87;68.44
47434;SHT31;33184;48.774;8.918;2023-02-28T01:01:25;-2.91;68.71
47434;SHT31;33184;48.774;8.918;2023-02-28T01:06:46;-2.95;69.54
47434;SHT31;33184;48.774;8.918;2023-02-28T01:12:08;-3.04;69.39
47434;SHT31;33184;48.774;8.918;2023-02-28T01:17:28;-3.13;69.95
47434;SHT31;33184;48.774;8.918;2023-02-28T01:22:49;-3.12;71.08
47434;SHT31;33184;48.774;8.918;2023-02-28T01:28:10;-3.18;70.92
47434;SHT31;33184;48.774;8.918;2023-02-28T01:33:30;-3.21;71.57
47434;SHT31;33184;48.774;8.918;2023-02-28T01:38:52;-3.22;72.08
47434;SHT31;33184;48.774;8.918;2023-02-28T01:50:16;-3.21;72.58
47434;SHT31;33184;48.774;8.918;2023-02-28T01:55:40;-3.22;72.95
47434;SHT31;33184;48.774;8.918;2023-02-28T02:01:01;-3.25;73.95
47434;SHT31;33184;48.774;8.918;2023-02-28T02:06:44;-3.31;74.16
47434;SHT31;33184;48.774;8.918;2023-02-28T02:12:18;-3.32;74.87
47434;SHT31;33184;48.774;8.918;2023-02-28T02:17:48;-3.32;74.45
47434;SHT31;33184;48.774;8.918;2023-02-28T02:41:02;-3.26;75.75
47434;SHT31;33184;48.774;8.918;2023-02-28T02:46:28;-3.23;75.69
47434;SHT31;33184;48.774;8.918;2023-02-28T02:51:51;-3.23;75.11
47434;SHT31;33184;48.774;8.918;2023-02-28T02:57:20;-3.18;74.63
47434;SHT31;33184;48.774;8.918;2023-02-28T03:02:44;-3.16;75.46
47434;SHT31;33184;48.774;8.918;2023-02-28T03:08:06;-3.18;74.81
47434;SHT31;33184;48.774;8.918;2023-02-28T03:31:25;-3.31;76.67
47434;SHT31;33184;48.774;8.918;2023-02-28T03:36:50;-3.21;77.33
47434;SHT31;33184;48.774;8.918;2023-02-28T03:42:17;-3.21;77.47
47434;SHT31;33184;48.774;8.918;2023-02-28T03:47:48;-3.31;77.18
47434;SHT31;33184;48.774;8.918;2023-02-28T03:53:15;-3.31;77.31
47434;SHT31;33184;48.774;8.918;2023-02-28T03:58:47;-3.26;77.87
47434;SHT31;33184;48.774;8.918;2023-02-28T04:04:10;-3.25;78.60
47434;SHT31;33184;48.774;8.918;2023-02-28T04:09:31;-3.22;78.82
47434;SHT31;33184;48.774;8.918;2023-02-28T04:14:52;-3.21;79.08
47434;SHT31;33184;48.774;8.918;2023-02-28T04:20:13;-3.21;79.41
47434;SHT31;33184;48.774;8.918;2023-02-28T04:25:34;-3.16;79.35
47434;SHT31;33184;48.774;8.918;2023-02-28T04:31:05;-3.12;79.47
47434;SHT31;33184;48.774;8.918;2023-02-28T04:36:25;-3.19;79.12
47434;SHT31;33184;48.774;8.918;2023-02-28T04:41:46;-3.18;79.61
47434;SHT31;33184;48.774;8.918;2023-02-28T04:47:07;-3.12;80.35
47434;SHT31;33184;48.774;8.918;2023-02-28T04:52:28;-3.05;80.63
47434;SHT31;33184;48.774;8.918;2023-02-28T04:57:48;-3.07;80.31
47434;SHT31;33184;48.774;8.918;2023-02-28T05:03:09;-3.00;79.09
47434;SHT31;33184;48.774;8.918;2023-02-28T05:08:30;-2.97;80.50
47434;SHT31;33184;48.774;8.918;2023-02-28T05:13:50;-2.83;80.71
47434;SHT31;33184;48.774;8.918;2023-02-28T05:19:11;-2.71;80.25
47434;SHT31;33184;48.774;8.918;2023-02-28T05:24:32;-2.68;79.85
47434;SHT31;33184;48.774;8.918;2023-02-28T05:29:52;-2.71;79.63
47434;SHT31;33184;48.774;8.918;2023-02-28T05:35:13;-2.73;79.71
47434;SHT31;33184;48.774;8.918;2023-02-28T05:40:34;-2.68;79.86
47434;SHT31;33184;48.774;8.918;2023-02-28T05:45:55;-2.70;80.10
47434;SHT31;33184;48.774;8.918;2023-02-28T05:51:16;-2.68;79.98
47434;SHT31;33184;48.774;8.918;2023-02-28T05:56:37;-2.66;79.86
47434;SHT31;33184;48.774;8.918;2023-02-28T06:02:04;-2.63;79.91
47434;SHT31;33184;48.774;8.918;2023-02-28T06:07:24;-2.60;80.00
47434;SHT31;33184;48.774;8.918;2023-02-28T06:12:45;-2.54;80.11
47434;SHT31;33184;48.774;8.918;2023-02-28T06:18:05;-2.53;79.86
47434;SHT31;33184;48.774;8.918;2023-02-28T06:23:26;-2.50;79.85
47434;SHT31;33184;48.774;8.918;2023-02-28T06:28:47;-2.46;79.82
47434;SHT31;33184;48.774;8.918;2023-02-28T06:34:08;-2.49;80.04
47434;SHT31;33184;48.774;8.918;2023-02-28T06:39:29;-2.42;80.34
47434;SHT31;33184;48.774;8.918;2023-02-28T06:44:51;-2.45;80.46
47434;SHT31;33184;48.774;8.918;2023-02-28T06:50:12;-2.43;80.56
47434;SHT31;33184;48.774;8.918;2023-02-28T06:55:33;-2.42;80.45
47434;SHT31;33184;48.774;8.918;2023-02-28T07:00:53;-2.42;80.15
47434;SHT31;33184;48.774;8.918;2023-02-28T07:06:14;-2.39;79.53
47434;SHT31;33184;48.774;8.918;2023-02-28T07:11:38;-2.33;79.33
47434;SHT31;33184;48.774;8.918;2023-02-28T07:16:58;-2.27;78.92
47434;SHT31;33184;48.774;8.918;2023-02-28T07:22:19;-2.25;78.43
47434;SHT31;33184;48.774;8.918;2023-02-28T07:27:39;-2.19;78.35
47434;SHT31;33184;48.774;8.918;2023-02-28T07:33:00;-2.13;77.99
47434;SHT31;33184;48.774;8.918;2023-02-28T07:38:20;-2.13;77.67
47434;SHT31;33184;48.774;8.918;2023-02-28T07:43:41;-2.05;77.66
47434;SHT31;33184;48.774;8.918;2023-02-28T07:49:02;-2.01;77.51
47434;SHT31;33184;48.774;8.918;2023-02-28T07:54:23;-1.95;77.36
47434;SHT31;33184;48.774;8.918;2023-02-28T07:59:43;-1.96;77.13
47434;SHT31;33184;48.774;8.918;2023-02-28T08:05:05;-1.95;76.87
47434;SHT31;33184;48.774;8.918;2023-02-28T08:10:26;-1.95;76.76
47434;SHT31;33184;48.774;8.918;2023-02-28T08:15:47;-1.93;76.67
47434;SHT31;33184;48.774;8.918;2023-02-28T08:21:08;-1.92;76.63
47434;SHT31;33184;48.774;8.918;2023-02-28T08:26:29;-1.98;76.61
47434;SHT31;33184;48.774;8.918;2023-02-28T08:31:50;-1.88;76.62
47434;SHT31;33184;48.774;8.918;2023-02-28T08:37:10;-1.86;76.36
47434;SHT31;33184;48.774;8.918;2023-02-28T08:42:32;-1.86;76.30
47434;SHT31;33184;48.774;8.918;2023-02-28T08:47:54;-1.83;75.96
47434;SHT31;33184;48.774;8.918;2023-02-28T08:53:15;-1.79;76.08
47434;SHT31;33184;48.774;8.918;2023-02-28T08:58:36;-1.75;75.77
47434;SHT31;33184;48.774;8.918;2023-02-28T09:03:57;-1.68;75.63
47434;SHT31;33184;48.774;8.918;2023-02-28T09:09:18;-1.60;75.27
47434;SHT31;33184;48.774;8.918;2023-02-28T09:14:38;-1.57;74.93
47434;SHT31;33184;48.774;8.918;2023-02-28T09:19:59;-1.54;74.64
47434;SHT31;33184;48.774;8.918;2023-02-28T09:25:21;-1.50;74.50
47434;SHT31;33184;48.774;8.918;2023-02-28T09:30:43;-1.40;74.49
47434;SHT31;33184;48.774;8.918;2023-02-28T09:36:04;-1.34;73.87
47434;SHT31;33184;48.774;8.918;2023-02-28T09:41:26;-1.27;73.79
47434;SHT31;33184;48.774;8.918;2023-02-28T09:46:57;-1.23;73.39
47434;SHT31;33184;48.774;8.918;2023-02-28T09:52:27;-1.06;73.32
47434;SHT31;33184;48.774;8.918;2023-02-28T09:57:50;-0.95;72.54
47434;SHT31;33184;48.774;8.918;2023-02-28T10:14:16;-0.62;69.58
47434;SHT31;33184;48.774;8.918;2023-02-28T10:19:47;-0.48;69.05
47434;SHT31;33184;48.774;8.918;2023-02-28T10:25:24;-0.38;68.27
47434;SHT31;33184;48.774;8.918;2023-02-28T10:30:51;-0.25;67.48
47434;SHT31;33184;48.774;8.918;2023-02-28T10:36:15;-0.21;66.90
47434;SHT31;33184;48.774;8.918;2023-02-28T10:41:42;-0.15;66.98
47434;SHT31;33184;48.774;8.918;2023-02-28T10:47:03;0.03;66.92
47434;SHT31;33184;48.774;8.918;2023-02-28T10:52:39;0.11;66.49
47434;SHT31;33184;48.774;8.918;2023-02-28T10:58:00;0.36;65.98
47434;SHT31;33184;48.774;8.918;2023-02-28T11:03:33;0.37;65.16
47434;SHT31;33184;48.774;8.918;2023-02-28T11:08:56;0.50;64.49
47434;SHT31;33184;48.774;8.918;2023-02-28T11:14:27;0.64;64.24
47434;SHT31;33184;48.774;8.918;2023-02-28T11:19:52;0.76;64.17
47434;SHT31;33184;48.774;8.918;2023-02-28T11:25:22;1.27;62.87
47434;SHT31;33184;48.774;8.918;2023-02-28T11:30:43;2.05;61.80
47434;SHT31;33184;48.774;8.918;2023-02-28T11:36:10;2.43;58.96
47434;SHT31;33184;48.774;8.918;2023-02-28T11:47:17;3.15;56.73
47434;SHT31;33184;48.774;8.918;2023-02-28T11:53:30;4.14;55.71
47434;SHT31;33184;48.774;8.918;2023-02-28T12:04:48;5.36;51.20
47434;SHT31;33184;48.774;8.918;2023-02-28T12:10:21;5.20;52.68
47434;SHT31;33184;48.774;8.918;2023-02-28T12:16:13;5.12;52.19
47434;SHT31;33184;48.774;8.918;2023-02-28T12:27:10;5.06;52.43
47434;SHT31;33184;48.774;8.918;2023-02-28T12:32:36;4.87;50.79
47434;SHT31;33184;48.774;8.918;2023-02-28T12:38:17;3.93;52.53
47434;SHT31;33184;48.774;8.918;2023-02-28T12:43:51;4.40;53.33
47434;SHT31;33184;48.774;8.918;2023-02-28T12:49:21;4.78;52.78
47434;SHT31;33184;48.774;8.918;2023-02-28T13:00:16;4.93;50.80
47434;SHT31;33184;48.774;8.918;2023-02-28T13:11:32;4.77;51.42
47434;SHT31;33184;48.774;8.918;2023-02-28T13:17:01;5.91;49.34
47434;SHT31;33184;48.774;8.918;2023-02-28T13:27:46;5.59;48.55
47434;SHT31;33184;48.774;8.918;2023-02-28T13:38:47;6.45;47.17
47434;SHT31;33184;48.774;8.918;2023-02-28T13:44:21;6.29;46.62
47434;SHT31;33184;48.774;8.918;2023-02-28T13:49:44;5.95;46.32
47434;SHT31;33184;48.774;8.918;2023-02-28T13:55:27;6.43;45.64
47434;SHT31;33184;48.774;8.918;2023-02-28T14:01:06;7.15;43.85
47434;SHT31;33184;48.774;8.918;2023-02-28T14:06:30;6.76;44.74
47434;SHT31;33184;48.774;8.918;2023-02-28T14:11:52;7.51;42.84
47434;SHT31;33184;48.774;8.918;2023-02-28T14:17:15;7.00;43.68
47434;SHT31;33184;48.774;8.918;2023-02-28T14:22:43;7.08;44.16
47434;SHT31;33184;48.774;8.918;2023-02-28T14:28:37;6.83;44.94
47434;SHT31;33184;48.774;8.918;2023-02-28T14:34:05;6.48;47.30
47434;SHT31;33184;48.774;8.918;2023-02-28T14:39:33;6.63;46.96
47434;SHT31;33184;48.774;8.918;2023-02-28T14:44:54;6.30;45.89
47434;SHT31;33184;48.774;8.918;2023-02-28T14:50:20;6.25;45.93
47434;SHT31;33184;48.774;8.918;2023-02-28T14:55:44;5.84;47.70
47434;SHT31;33184;48.774;8.918;2023-02-28T15:01:05;5.50;48.55
47434;SHT31;33184;48.774;8.918;2023-02-28T15:06:25;5.29;48.32
47434;SHT31;33184;48.774;8.918;2023-02-28T15:11:48;5.33;48.69
47434;SHT31;33184;48.774;8.918;2023-02-28T15:17:21;5.32;49.38
47434;SHT31;33184;48.774;8.918;2023-02-28T15:22:44;5.23;49.59
47434;SHT31;33184;48.774;8.918;2023-02-28T15:28:13;5.13;49.84
47434;SHT31;33184;48.774;8.918;2023-02-28T15:33:34;5.13;49.84
47434;SHT31;33184;48.774;8.918;2023-02-28T15:38:55;5.24;49.11
47434;SHT31;33184;48.774;8.918;2023-02-28T15:44:26;5.16;49.73
47434;SHT31;33184;48.774;8.918;2023-02-28T15:49:47;5.47;49.42
47434;SHT31;33184;48.774;8.918;2023-02-28T15:55:19;5.37;49.56
47434;SHT31;33184;48.774;8.918;2023-02-28T16:00:43;5.06;50.12
47434;SHT31;33184;48.774;8.918;2023-02-28T16:11:55;4.47;51.87
47434;SHT31;33184;48.774;8.918;2023-02-28T16:17:31;4.31;52.61
47434;SHT31;33184;48.774;8.918;2023-02-28T16:22:53;4.28;52.58
47434;SHT31;33184;48.774;8.918;2023-02-28T16:28:24;4.34;52.52
47434;SHT31;33184;48.774;8.918;2023-02-28T16:33:46;4.23;53.02
47434;SHT31;33184;48.774;8.918;2023-02-28T16:39:07;4.00;53.84
47434;SHT31;33184;48.774;8.918;2023-02-28T16:44:29;3.81;54.36
47434;SHT31;33184;48.774;8.918;2023-02-28T16:49:52;3.72;54.89
47434;SHT31;33184;48.774;8.918;2023-02-28T16:55:12;3.47;55.69
47434;SHT31;33184;48.774;8.918;2023-02-28T17:00:33;3.15;56.73
47434;SHT31;33184;48.774;8.918;2023-02-28T17:05:54;3.00;57.59
47434;SHT31;33184;48.774;8.918;2023-02-28T17:11:16;2.79;57.91
47434;SHT31;33184;48.774;8.918;2023-02-28T17:16:38;2.55;58.85
47434;SHT31;33184;48.774;8.918;2023-02-28T17:22:08;2.45;59.76
47434;SHT31;33184;48.774;8.918;2023-02-28T17:27:29;2.38;60.21
47434;SHT31;33184;48.774;8.918;2023-02-28T17:32:49;2.25;60.62
47434;SHT31;33184;48.774;8.918;2023-02-28T17:38:18;2.16;60.87
47434;SHT31;33184;48.774;8.918;2023-02-28T17:43:39;2.09;61.51
47434;SHT31;33184;48.774;8.918;2023-02-28T17:49:00;1.99;61.17
47434;SHT31;33184;48.774;8.918;2023-02-28T17:54:20;1.94;61.55
47434;SHT31;33184;48.774;8.918;2023-02-28T17:59:41;1.82;61.95
47434;SHT31;33184;48.774;8.918;2023-02-28T18:05:02;1.70;62.10
47434;SHT31;33184;48.774;8.918;2023-02-28T18:10:24;1.58;62.78
47434;SHT31;33184;48.774;8.918;2023-02-28T18:15:45;1.54;64.03
47434;SHT31;33184;48.774;8.918;2023-02-28T18:21:08;1.44;63.89
47434;SHT31;33184;48.774;8.918;2023-02-28T18:26:28;1.39;63.91
47434;SHT31;33184;48.774;8.918;2023-02-28T18:31:49;1.33;64.01
47434;SHT31;33184;48.774;8.918;2023-02-28T18:37:11;1.25;64.01
47434;SHT31;33184;48.774;8.918;2023-02-28T18:42:32;1.16;64.42
47434;SHT31;33184;48.774;8.918;2023-02-28T18:47:52;1.10;64.73
47434;SHT31;33184;48.774;8.918;2023-02-28T18:53:13;1.07;64.80
47434;SHT31;33184;48.774;8.918;2023-02-28T18:58:34;1.03;64.73
47434;SHT31;33184;48.774;8.918;2023-02-28T19:03:55;1.00;64.74
47434;SHT31;33184;48.774;8.918;2023-02-28T19:09:16;0.92;64.48
47434;SHT31;33184;48.774;8.918;2023-02-28T19:14:36;0.84;64.38
47434;SHT31;33184;48.774;8.918;2023-02-28T19:19:57;0.81;65.20
47434;SHT31;33184;48.774;8.918;2023-02-28T19:25:18;0.79;65.32
47434;SHT31;33184;48.774;8.918;2023-02-28T19:30:39;0.85;65.82
47434;SHT31;33184;48.774;8.918;2023-02-28T19:36:00;0.88;65.46
47434;SHT31;33184;48.774;8.918;2023-02-28T19:41:20;0.78;65.50
47434;SHT31;33184;48.774;8.918;2023-02-28T19:46:41;0.68;65.48
47434;SHT31;33184;48.774;8.918;2023-02-28T19:52:02;0.60;65.75
47434;SHT31;33184;48.774;8.918;2023-02-28T19:57:23;0.57;66.01
47434;SHT31;33184;48.774;8.918;2023-02-28T20:02:43;0.55;66.36
47434;SHT31;33184;48.774;8.918;2023-02-28T20:08:04;0.61;67.50
47434;SHT31;33184;48.774;8.918;2023-02-28T20:13:25;0.66;67.97
47434;SHT31;33184;48.774;8.918;2023-02-28T20:18:49;0.68;68.13
47434;SHT31;33184;48.774;8.918;2023-02-28T20:24:11;0.50;67.12
47434;SHT31;33184;48.774;8.918;2023-02-28T20:29:33;0.38;67.28
47434;SHT31;33184;48.774;8.918;2023-02-28T20:34:54;0.36;69.12
47434;SHT31;33184;48.774;8.918;2023-02-28T20:40:14;0.34;69.92
47434;SHT31;33184;48.774;8.918;2023-02-28T20:45:35;0.37;70.64
47434;SHT31;33184;48.774;8.918;2023-02-28T20:50:57;0.27;69.71
47434;SHT31;33184;48.774;8.918;2023-02-28T20:56:19;0.01;70.37
47434;SHT31;33184;48.774;8.918;2023-02-28T21:01:40;-0.09;71.43
47434;SHT31;33184;48.774;8.918;2023-02-28T21:07:03;-0.04;71.99
47434;SHT31;33184;48.774;8.918;2023-02-28T21:12:24;-0.04;72.06
47434;SHT31;33184;48.774;8.918;2023-02-28T21:17:44;-0.20;70.60
47434;SHT31;33184;48.774;8.918;2023-02-28T21:23:07;-0.34;70.52
47434;SHT31;33184;48.774;8.918;2023-02-28T21:28:27;-0.40;70.71
47434;SHT31;33184;48.774;8.918;2023-02-28T21:33:48;-0.49;70.60
47434;SHT31;33184;48.774;8.918;2023-02-28T21:39:24;-0.48;71.11
47434;SHT31;33184;48.774;8.918;2023-02-28T21:44:49;-0.48;70.84
47434;SHT31;33184;48.774;8.918;2023-02-28T21:50:10;-0.55;70.55
47434;SHT31;33184;48.774;8.918;2023-02-28T21:55:33;-0.54;70.86
47434;SHT31;33184;48.774;8.918;2023-02-28T22:00:54;-0.59;71.19
47434;SHT31;33184;48.774;8.918;2023-02-28T22:06:20;-0.64;71.08
47434;SHT31;33184;48.774;8.918;2023-02-28T22:11:40;-0.70;71.05
47434;SHT31;33184;48.774;8.918;2023-02-28T22:17:01;-0.85;70.95
47434;SHT31;33184;48.774;8.918;2023-02-28T22:22:22;-0.90;71.77
47434;SHT31;33184;48.774;8.918;2023-02-28T22:27:42;-1.06;71.80
47434;SHT31;33184;48.774;8.918;2023-02-28T22:33:03;-1.19;71.96
47434;SHT31;33184;48.774;8.918;2023-02-28T22:38:23;-1.30;72.26
47434;SHT31;33184;48.774;8.918;2023-02-28T22:43:51;-1.40;73.10
47434;SHT31;33184;48.774;8.918;2023-02-28T22:49:13;-1.43;73.33
47434;SHT31;33184;48.774;8.918;2023-02-28T22:54:33;-1.33;73.23
47434;SHT31;33184;48.774;8.918;2023-02-28T22:59:54;-1.21;73.45
47434;SHT31;33184;48.774;8.918;2023-02-28T23:05:15;-1.31;73.19
47434;SHT31;33184;48.774;8.918;2023-02-28T23:10:40;-1.37;73.39
47434;SHT31;33184;48.774;8.918;2023-02-28T23:16:05;-1.48;73.27
47434;SHT31;33184;48.774;8.918;2023-02-28T23:21:27;-1.55;73.05
47434;SHT31;33184;48.774;8.918;2023-02-28T23:26:50;-1.58;72.55
47434;SHT31;33184;48.774;8.918;2023-02-28T23:32:11;-1.58;72.70
47434;SHT31;33184;48.774;8.918;2023-02-28T23:37:31;-1.62;73.46
47434;SHT31;33184;48.774;8.918;2023-02-28T23:42:52;-1.75;73.48
47434;SHT31;33184;48.774;8.918;2023-02-28T23:48:12;-1.74;73.91
47434;SHT31;33184;48.774;8.918;2023-02-28T23:53:38;-1.74;73.66
47434;SHT31;33184;48.774;8.918;2023-02-28T23:59:00;-1.78;73.94
